Terminal Aerodrome Forecast
Issued by NWS

Home | Current Version | Previous Version | Graphics & Text | Print | Product List | Glossary On
Versions: 1 2 3 4 5 6 7 8 9 10 11 12 13 14 15 16 17 18 19 20 21 22 23 24 25 26 27 28
000
FTUS43 KLOT 200904 AAA
TAFORD
TAF AMD
KORD 200904Z 2009/2112 06012KT P6SM OVC015
     FM201430 08012G18KT 4SM -SHRA VCTS OVC007CB
     FM201800 09012G18KT 6SM -DZ BR VCSH OVC009
     FM210100 15008KT P6SM VCSH BKN025
     FM210500 19008KT P6SM SCT025 BKN040=

USA.gov is the U.S. government's official web portal to all federal, state and local government web resources and services.